sensor_id;sensor_type;location;lat;lon;timestamp;temperature;humidity
11152;DHT22;5630;49.342;10.802;2022-08-30T00:00:22;16.50;99.90
11152;DHT22;5630;49.342;10.802;2022-08-30T00:03:08;16.40;99.90
11152;DHT22;5630;49.342;10.802;2022-08-30T00:05:35;16.40;99.90
11152;DHT22;5630;49.342;10.802;2022-08-30T00:08:01;16.40;99.90
11152;DHT22;5630;49.342;10.802;2022-08-30T00:10:28;16.40;99.90
11152;DHT22;5630;49.342;10.802;2022-08-30T00:12:55;16.30;99.90
11152;DHT22;5630;49.342;10.802;2022-08-30T00:15:22;16.30;99.90
11152;DHT22;5630;49.342;10.802;2022-08-30T00:17:47;16.40;99.90
11152;DHT22;5630;49.342;10.802;2022-08-30T00:20:17;16.40;99.90
11152;DHT22;5630;49.342;10.802;2022-08-30T00:22:44;16.30;99.90
11152;DHT22;5630;49.342;10.802;2022-08-30T00:25:10;16.40;99.90
11152;DHT22;5630;49.342;10.802;2022-08-30T00:27:37;16.40;99.90
11152;DHT22;5630;49.342;10.802;2022-08-30T00:30:03;16.40;99.90
11152;DHT22;5630;49.342;10.802;2022-08-30T00:32:29;16.30;99.90
11152;DHT22;5630;49.342;10.802;2022-08-30T00:34:55;16.40;99.90
11152;DHT22;5630;49.342;10.802;2022-08-30T00:37:21;16.30;99.90
11152;DHT22;5630;49.342;10.802;2022-08-30T00:42:14;16.30;99.90
11152;DHT22;5630;49.342;10.802;2022-08-30T00:44:41;16.20;99.90
11152;DHT22;5630;49.342;10.802;2022-08-30T00:47:07;16.20;99.90
11152;DHT22;5630;49.342;10.802;2022-08-30T00:49:33;16.20;99.90
11152;DHT22;5630;49.342;10.802;2022-08-30T00:52:01;16.20;99.90
11152;DHT22;5630;49.342;10.802;2022-08-30T00:54:28;16.20;99.90
11152;DHT22;5630;49.342;10.802;2022-08-30T00:56:54;16.10;99.90
11152;DHT22;5630;49.342;10.802;2022-08-30T00:59:21;16.10;99.90
11152;DHT22;5630;49.342;10.802;2022-08-30T01:01:49;16.10;99.90
11152;DHT22;5630;49.342;10.802;2022-08-30T01:04:15;16.10;99.90
11152;DHT22;5630;49.342;10.802;2022-08-30T01:06:44;16.00;99.90
11152;DHT22;5630;49.342;10.802;2022-08-30T01:09:11;16.00;99.90
11152;DHT22;5630;49.342;10.802;2022-08-30T01:11:38;16.00;99.90
11152;DHT22;5630;49.342;10.802;2022-08-30T01:14:07;16.00;99.90
11152;DHT22;5630;49.342;10.802;2022-08-30T01:16:34;16.00;99.90
11152;DHT22;5630;49.342;10.802;2022-08-30T01:19:01;16.00;99.90
11152;DHT22;5630;49.342;10.802;2022-08-30T01:21:44;16.00;99.90
11152;DHT22;5630;49.342;10.802;2022-08-30T01:24:11;16.00;99.90
11152;DHT22;5630;49.342;10.802;2022-08-30T01:26:37;16.00;99.90
11152;DHT22;5630;49.342;10.802;2022-08-30T01:29:08;16.00;99.90
11152;DHT22;5630;49.342;10.802;2022-08-30T01:31:34;16.00;99.90
11152;DHT22;5630;49.342;10.802;2022-08-30T01:34:02;16.00;99.90
11152;DHT22;5630;49.342;10.802;2022-08-30T01:36:30;16.00;99.90
11152;DHT22;5630;49.342;10.802;2022-08-30T01:38:56;16.00;99.90
11152;DHT22;5630;49.342;10.802;2022-08-30T01:41:34;16.00;99.90
11152;DHT22;5630;49.342;10.802;2022-08-30T01:44:02;16.00;99.90
11152;DHT22;5630;49.342;10.802;2022-08-30T01:46:35;16.10;99.90
11152;DHT22;5630;49.342;10.802;2022-08-30T01:49:06;16.10;99.90
11152;DHT22;5630;49.342;10.802;2022-08-30T01:51:32;16.00;99.90
11152;DHT22;5630;49.342;10.802;2022-08-30T01:53:58;16.10;99.90
11152;DHT22;5630;49.342;10.802;2022-08-30T01:56:25;16.00;99.90
11152;DHT22;5630;49.342;10.802;2022-08-30T01:58:52;16.00;99.90
11152;DHT22;5630;49.342;10.802;2022-08-30T02:01:19;15.90;99.90
11152;DHT22;5630;49.342;10.802;2022-08-30T02:03:47;15.90;99.90
11152;DHT22;5630;49.342;10.802;2022-08-30T02:06:15;15.90;99.90
11152;DHT22;5630;49.342;10.802;2022-08-30T02:08:42;15.90;99.90
11152;DHT22;5630;49.342;10.802;2022-08-30T02:11:09;15.90;99.90
11152;DHT22;5630;49.342;10.802;2022-08-30T02:13:35;15.80;99.90
11152;DHT22;5630;49.342;10.802;2022-08-30T02:16:06;15.80;99.90
11152;DHT22;5630;49.342;10.802;2022-08-30T02:18:34;15.80;99.90
11152;DHT22;5630;49.342;10.802;2022-08-30T02:20:59;15.80;99.90
11152;DHT22;5630;49.342;10.802;2022-08-30T02:23:25;15.80;99.90
11152;DHT22;5630;49.342;10.802;2022-08-30T02:25:52;15.80;99.90
11152;DHT22;5630;49.342;10.802;2022-08-30T02:28:18;15.80;99.90
11152;DHT22;5630;49.342;10.802;2022-08-30T02:30:45;15.80;99.90
11152;DHT22;5630;49.342;10.802;2022-08-30T02:33:10;15.80;99.90
11152;DHT22;5630;49.342;10.802;2022-08-30T02:35:36;15.80;99.90
11152;DHT22;5630;49.342;10.802;2022-08-30T02:38:02;15.80;99.90
11152;DHT22;5630;49.342;10.802;2022-08-30T02:40:28;15.80;99.90
11152;DHT22;5630;49.342;10.802;2022-08-30T02:42:53;15.80;99.90
11152;DHT22;5630;49.342;10.802;2022-08-30T02:45:19;15.80;99.90
11152;DHT22;5630;49.342;10.802;2022-08-30T02:47:45;15.80;99.90
11152;DHT22;5630;49.342;10.802;2022-08-30T02:50:11;15.70;99.90
11152;DHT22;5630;49.342;10.802;2022-08-30T02:52:36;15.80;99.90
11152;DHT22;5630;49.342;10.802;2022-08-30T02:55:04;15.80;99.90
11152;DHT22;5630;49.342;10.802;2022-08-30T02:57:30;15.80;99.90
11152;DHT22;5630;49.342;10.802;2022-08-30T02:59:56;15.80;99.90
11152;DHT22;5630;49.342;10.802;2022-08-30T03:02:22;15.80;99.90
11152;DHT22;5630;49.342;10.802;2022-08-30T03:04:47;15.80;99.90
11152;DHT22;5630;49.342;10.802;2022-08-30T03:07:14;15.90;99.90
11152;DHT22;5630;49.342;10.802;2022-08-30T03:09:40;15.90;99.90
11152;DHT22;5630;49.342;10.802;2022-08-30T03:12:07;15.90;99.90
11152;DHT22;5630;49.342;10.802;2022-08-30T03:14:34;15.80;99.90
11152;DHT22;5630;49.342;10.802;2022-08-30T03:17:02;15.90;99.90
11152;DHT22;5630;49.342;10.802;2022-08-30T03:19:28;15.80;99.90
11152;DHT22;5630;49.342;10.802;2022-08-30T03:21:53;15.80;99.90
11152;DHT22;5630;49.342;10.802;2022-08-30T03:24:19;15.80;99.90
11152;DHT22;5630;49.342;10.802;2022-08-30T03:26:45;15.80;99.90
11152;DHT22;5630;49.342;10.802;2022-08-30T03:29:10;15.80;99.90
11152;DHT22;5630;49.342;10.802;2022-08-30T03:31:36;15.80;99.90
11152;DHT22;5630;49.342;10.802;2022-08-30T03:34:02;15.80;99.90
11152;DHT22;5630;49.342;10.802;2022-08-30T03:36:30;15.80;99.90
11152;DHT22;5630;49.342;10.802;2022-08-30T03:38:56;15.90;99.90
11152;DHT22;5630;49.342;10.802;2022-08-30T03:41:22;15.80;99.90
11152;DHT22;5630;49.342;10.802;2022-08-30T03:43:48;15.80;99.90
11152;DHT22;5630;49.342;10.802;2022-08-30T03:46:14;15.80;99.90
11152;DHT22;5630;49.342;10.802;2022-08-30T03:48:40;15.80;99.90
11152;DHT22;5630;49.342;10.802;2022-08-30T03:51:06;15.80;99.90
11152;DHT22;5630;49.342;10.802;2022-08-30T03:53:32;15.70;99.90
11152;DHT22;5630;49.342;10.802;2022-08-30T03:55:57;15.70;99.90
11152;DHT22;5630;49.342;10.802;2022-08-30T03:58:23;15.70;99.90
11152;DHT22;5630;49.342;10.802;2022-08-30T04:00:49;15.70;99.90
11152;DHT22;5630;49.342;10.802;2022-08-30T04:03:14;15.60;99.90
11152;DHT22;5630;49.342;10.802;2022-08-30T04:05:40;15.70;99.90
11152;DHT22;5630;49.342;10.802;2022-08-30T04:08:06;15.60;99.90
11152;DHT22;5630;49.342;10.802;2022-08-30T04:10:32;15.60;99.90
11152;DHT22;5630;49.342;10.802;2022-08-30T04:12:58;15.60;99.90
11152;DHT22;5630;49.342;10.802;2022-08-30T04:15:23;15.60;99.90
11152;DHT22;5630;49.342;10.802;2022-08-30T04:17:49;15.50;99.90
11152;DHT22;5630;49.342;10.802;2022-08-30T04:20:15;15.50;99.90
11152;DHT22;5630;49.342;10.802;2022-08-30T04:22:41;15.50;99.90
11152;DHT22;5630;49.342;10.802;2022-08-30T04:25:07;15.50;99.90
11152;DHT22;5630;49.342;10.802;2022-08-30T04:27:33;15.50;99.90
11152;DHT22;5630;49.342;10.802;2022-08-30T04:29:59;15.50;99.90
11152;DHT22;5630;49.342;10.802;2022-08-30T04:32:25;15.40;99.90
11152;DHT22;5630;49.342;10.802;2022-08-30T04:34:57;15.40;99.90
11152;DHT22;5630;49.342;10.802;2022-08-30T04:37:24;15.40;99.90
11152;DHT22;5630;49.342;10.802;2022-08-30T04:39:50;15.40;99.90
11152;DHT22;5630;49.342;10.802;2022-08-30T04:42:19;15.30;99.90
11152;DHT22;5630;49.342;10.802;2022-08-30T04:44:45;15.30;99.90
11152;DHT22;5630;49.342;10.802;2022-08-30T04:47:10;15.30;99.90
11152;DHT22;5630;49.342;10.802;2022-08-30T04:49:36;15.30;99.90
11152;DHT22;5630;49.342;10.802;2022-08-30T04:52:02;15.30;99.90
11152;DHT22;5630;49.342;10.802;2022-08-30T04:54:28;15.30;99.90
11152;DHT22;5630;49.342;10.802;2022-08-30T04:56:53;15.30;99.90
11152;DHT22;5630;49.342;10.802;2022-08-30T04:59:19;15.30;99.90
11152;DHT22;5630;49.342;10.802;2022-08-30T05:01:46;15.40;99.90
11152;DHT22;5630;49.342;10.802;2022-08-30T05:04:13;15.40;99.90
11152;DHT22;5630;49.342;10.802;2022-08-30T05:06:39;15.40;99.90
11152;DHT22;5630;49.342;10.802;2022-08-30T05:09:05;15.40;99.90
11152;DHT22;5630;49.342;10.802;2022-08-30T05:13:56;15.50;99.90
11152;DHT22;5630;49.342;10.802;2022-08-30T05:16:22;15.50;99.90
11152;DHT22;5630;49.342;10.802;2022-08-30T05:18:49;15.50;99.90
11152;DHT22;5630;49.342;10.802;2022-08-30T05:21:19;15.50;99.90
11152;DHT22;5630;49.342;10.802;2022-08-30T05:23:46;15.50;99.90
11152;DHT22;5630;49.342;10.802;2022-08-30T05:26:24;15.50;99.90
11152;DHT22;5630;49.342;10.802;2022-08-30T05:28:50;15.50;99.90
11152;DHT22;5630;49.342;10.802;2022-08-30T05:31:22;15.50;99.90
11152;DHT22;5630;49.342;10.802;2022-08-30T05:33:50;15.50;99.90
11152;DHT22;5630;49.342;10.802;2022-08-30T05:36:16;15.50;99.90
11152;DHT22;5630;49.342;10.802;2022-08-30T05:38:43;15.50;99.90
11152;DHT22;5630;49.342;10.802;2022-08-30T05:41:09;15.50;99.90
11152;DHT22;5630;49.342;10.802;2022-08-30T05:43:35;15.50;99.90
11152;DHT22;5630;49.342;10.802;2022-08-30T05:46:08;15.50;99.90
11152;DHT22;5630;49.342;10.802;2022-08-30T05:48:35;15.50;99.90
11152;DHT22;5630;49.342;10.802;2022-08-30T05:51:13;15.50;99.90
11152;DHT22;5630;49.342;10.802;2022-08-30T05:53:40;15.60;99.90
11152;DHT22;5630;49.342;10.802;2022-08-30T05:56:08;15.60;99.90
11152;DHT22;5630;49.342;10.802;2022-08-30T05:58:35;15.60;99.90
11152;DHT22;5630;49.342;10.802;2022-08-30T06:01:02;15.60;99.90
11152;DHT22;5630;49.342;10.802;2022-08-30T06:03:27;15.60;99.90
11152;DHT22;5630;49.342;10.802;2022-08-30T06:05:54;15.60;99.90
11152;DHT22;5630;49.342;10.802;2022-08-30T06:08:20;15.70;99.90
11152;DHT22;5630;49.342;10.802;2022-08-30T06:10:46;15.70;99.90
11152;DHT22;5630;49.342;10.802;2022-08-30T06:13:13;15.70;99.90
11152;DHT22;5630;49.342;10.802;2022-08-30T06:15:39;15.80;99.90
11152;DHT22;5630;49.342;10.802;2022-08-30T06:18:05;15.80;99.90
11152;DHT22;5630;49.342;10.802;2022-08-30T06:20:30;15.90;99.90
11152;DHT22;5630;49.342;10.802;2022-08-30T06:22:57;15.90;99.90
11152;DHT22;5630;49.342;10.802;2022-08-30T06:25:22;16.00;99.90
11152;DHT22;5630;49.342;10.802;2022-08-30T06:27:48;16.00;99.90
11152;DHT22;5630;49.342;10.802;2022-08-30T06:30:14;16.10;99.90
11152;DHT22;5630;49.342;10.802;2022-08-30T06:32:40;16.10;99.90
11152;DHT22;5630;49.342;10.802;2022-08-30T06:35:06;16.30;99.90
11152;DHT22;5630;49.342;10.802;2022-08-30T06:37:33;16.30;99.90
11152;DHT22;5630;49.342;10.802;2022-08-30T06:39:59;16.40;99.90
11152;DHT22;5630;49.342;10.802;2022-08-30T06:42:28;16.50;99.90
11152;DHT22;5630;49.342;10.802;2022-08-30T06:45:05;16.60;99.90
11152;DHT22;5630;49.342;10.802;2022-08-30T06:47:31;16.70;99.90
11152;DHT22;5630;49.342;10.802;2022-08-30T06:49:57;16.80;99.90
11152;DHT22;5630;49.342;10.802;2022-08-30T06:52:23;17.00;99.90
11152;DHT22;5630;49.342;10.802;2022-08-30T06:54:49;17.00;99.90
11152;DHT22;5630;49.342;10.802;2022-08-30T06:57:14;17.10;99.90
11152;DHT22;5630;49.342;10.802;2022-08-30T06:59:40;17.20;99.90
11152;DHT22;5630;49.342;10.802;2022-08-30T07:02:06;17.30;99.90
11152;DHT22;5630;49.342;10.802;2022-08-30T07:04:33;17.50;99.90
11152;DHT22;5630;49.342;10.802;2022-08-30T07:06:58;17.60;99.90
11152;DHT22;5630;49.342;10.802;2022-08-30T07:09:24;17.90;99.90
11152;DHT22;5630;49.342;10.802;2022-08-30T07:11:51;18.00;99.90
11152;DHT22;5630;49.342;10.802;2022-08-30T07:14:17;18.10;99.90
11152;DHT22;5630;49.342;10.802;2022-08-30T07:16:43;18.30;99.90
11152;DHT22;5630;49.342;10.802;2022-08-30T07:19:09;18.50;99.90
11152;DHT22;5630;49.342;10.802;2022-08-30T07:21:38;18.60;99.90
11152;DHT22;5630;49.342;10.802;2022-08-30T07:24:05;18.80;99.90
11152;DHT22;5630;49.342;10.802;2022-08-30T07:26:37;18.90;99.90
11152;DHT22;5630;49.342;10.802;2022-08-30T07:29:04;19.10;99.90
11152;DHT22;5630;49.342;10.802;2022-08-30T07:31:29;19.30;99.90
11152;DHT22;5630;49.342;10.802;2022-08-30T07:33:55;19.50;99.90
11152;DHT22;5630;49.342;10.802;2022-08-30T07:36:21;19.70;99.90
11152;DHT22;5630;49.342;10.802;2022-08-30T07:38:51;19.90;99.90
11152;DHT22;5630;49.342;10.802;2022-08-30T07:41:31;20.20;99.90
11152;DHT22;5630;49.342;10.802;2022-08-30T07:43:58;20.40;99.90
11152;DHT22;5630;49.342;10.802;2022-08-30T07:46:24;20.50;99.90
11152;DHT22;5630;49.342;10.802;2022-08-30T07:48:50;20.60;99.90
11152;DHT22;5630;49.342;10.802;2022-08-30T07:51:20;20.80;99.90
11152;DHT22;5630;49.342;10.802;2022-08-30T07:53:47;21.00;99.90
11152;DHT22;5630;49.342;10.802;2022-08-30T07:56:12;21.30;99.90
11152;DHT22;5630;49.342;10.802;2022-08-30T07:58:38;21.40;99.90
11152;DHT22;5630;49.342;10.802;2022-08-30T08:03:34;21.60;99.90
11152;DHT22;5630;49.342;10.802;2022-08-30T08:06:02;22.00;99.90
11152;DHT22;5630;49.342;10.802;2022-08-30T08:08:28;22.10;99.90
11152;DHT22;5630;49.342;10.802;2022-08-30T08:10:54;22.30;99.90
11152;DHT22;5630;49.342;10.802;2022-08-30T08:13:19;22.60;99.90
11152;DHT22;5630;49.342;10.802;2022-08-30T08:15:45;22.80;99.90
11152;DHT22;5630;49.342;10.802;2022-08-30T08:18:11;22.90;99.90
11152;DHT22;5630;49.342;10.802;2022-08-30T08:20:36;23.10;99.90
11152;DHT22;5630;49.342;10.802;2022-08-30T08:23:02;23.30;99.90
11152;DHT22;5630;49.342;10.802;2022-08-30T08:25:28;23.40;99.90
11152;DHT22;5630;49.342;10.802;2022-08-30T08:27:54;23.50;99.90
11152;DHT22;5630;49.342;10.802;2022-08-30T08:30:21;23.60;99.90
11152;DHT22;5630;49.342;10.802;2022-08-30T08:32:48;23.70;99.90
11152;DHT22;5630;49.342;10.802;2022-08-30T08:35:15;23.70;99.90
11152;DHT22;5630;49.342;10.802;2022-08-30T08:42:58;23.90;99.90
11152;DHT22;5630;49.342;10.802;2022-08-30T08:45:50;24.30;99.90
11152;DHT22;5630;49.342;10.802;2022-08-30T08:50:51;24.70;99.90
11152;DHT22;5630;49.342;10.802;2022-08-30T08:53:36;24.80;99.90
11152;DHT22;5630;49.342;10.802;2022-08-30T08:56:10;24.80;99.90
11152;DHT22;5630;49.342;10.802;2022-08-30T08:58:43;24.80;99.90
11152;DHT22;5630;49.342;10.802;2022-08-30T09:01:13;25.00;99.90
11152;DHT22;5630;49.342;10.802;2022-08-30T09:03:40;25.20;99.90
11152;DHT22;5630;49.342;10.802;2022-08-30T09:06:21;25.40;99.90
11152;DHT22;5630;49.342;10.802;2022-08-30T09:08:47;25.50;99.90
11152;DHT22;5630;49.342;10.802;2022-08-30T09:11:20;25.60;99.90
11152;DHT22;5630;49.342;10.802;2022-08-30T09:13:46;25.80;99.90
11152;DHT22;5630;49.342;10.802;2022-08-30T09:22:01;26.20;99.90
11152;DHT22;5630;49.342;10.802;2022-08-30T09:24:43;26.40;99.90
11152;DHT22;5630;49.342;10.802;2022-08-30T09:27:24;26.50;99.90
11152;DHT22;5630;49.342;10.802;2022-08-30T09:29:58;26.80;99.90
11152;DHT22;5630;49.342;10.802;2022-08-30T09:32:26;27.00;99.90
11152;DHT22;5630;49.342;10.802;2022-08-30T09:34:52;26.90;99.90
11152;DHT22;5630;49.342;10.802;2022-08-30T09:37:34;27.10;99.90
11152;DHT22;5630;49.342;10.802;2022-08-30T09:40:08;27.10;99.90
11152;DHT22;5630;49.342;10.802;2022-08-30T09:42:34;27.10;99.90
11152;DHT22;5630;49.342;10.802;2022-08-30T09:45:00;27.20;99.90
11152;DHT22;5630;49.342;10.802;2022-08-30T09:47:37;27.10;99.90
11152;DHT22;5630;49.342;10.802;2022-08-30T09:50:15;27.40;99.90
11152;DHT22;5630;49.342;10.802;2022-08-30T09:53:18;27.40;99.90
11152;DHT22;5630;49.342;10.802;2022-08-30T09:56:00;27.50;99.90
11152;DHT22;5630;49.342;10.802;2022-08-30T10:01:15;27.60;99.90
11152;DHT22;5630;49.342;10.802;2022-08-30T10:03:52;27.60;99.90
11152;DHT22;5630;49.342;10.802;2022-08-30T10:06:31;27.70;99.90
11152;DHT22;5630;49.342;10.802;2022-08-30T10:09:25;27.80;99.90
11152;DHT22;5630;49.342;10.802;2022-08-30T10:22:55;27.80;99.90
11152;DHT22;5630;49.342;10.802;2022-08-30T10:25:32;27.80;99.90
11152;DHT22;5630;49.342;10.802;2022-08-30T10:28:16;27.90;99.90
11152;DHT22;5630;49.342;10.802;2022-08-30T10:30:47;27.80;99.90
11152;DHT22;5630;49.342;10.802;2022-08-30T10:33:27;27.70;99.90
11152;DHT22;5630;49.342;10.802;2022-08-30T10:35:57;28.00;99.90
11152;DHT22;5630;49.342;10.802;2022-08-30T10:38:31;28.00;99.90
11152;DHT22;5630;49.342;10.802;2022-08-30T10:41:12;28.00;99.90
11152;DHT22;5630;49.342;10.802;2022-08-30T10:44:02;28.00;99.90
11152;DHT22;5630;49.342;10.802;2022-08-30T10:46:33;28.30;99.90
11152;DHT22;5630;49.342;10.802;2022-08-30T10:49:02;28.50;99.90
11152;DHT22;5630;49.342;10.802;2022-08-30T10:51:32;28.50;99.90
11152;DHT22;5630;49.342;10.802;2022-08-30T10:54:09;28.70;99.90
11152;DHT22;5630;49.342;10.802;2022-08-30T10:56:39;28.80;99.90
11152;DHT22;5630;49.342;10.802;2022-08-30T10:59:07;28.90;99.90
11152;DHT22;5630;49.342;10.802;2022-08-30T11:01:55;29.00;99.90
11152;DHT22;5630;49.342;10.802;2022-08-30T11:08:02;28.80;99.90
11152;DHT22;5630;49.342;10.802;2022-08-30T11:10:58;28.80;98.90
11152;DHT22;5630;49.342;10.802;2022-08-30T11:13:27;28.90;99.00
11152;DHT22;5630;49.342;10.802;2022-08-30T11:18:31;29.20;99.00
11152;DHT22;5630;49.342;10.802;2022-08-30T11:37:35;29.20;96.40
11152;DHT22;5630;49.342;10.802;2022-08-30T11:42:50;29.40;97.90
11152;DHT22;5630;49.342;10.802;2022-08-30T11:47:49;29.40;96.30
11152;DHT22;5630;49.342;10.802;2022-08-30T11:56:21;29.10;94.60
11152;DHT22;5630;49.342;10.802;2022-08-30T12:01:37;29.20;95.00
11152;DHT22;5630;49.342;10.802;2022-08-30T12:04:11;29.30;94.60
11152;DHT22;5630;49.342;10.802;2022-08-30T12:09:11;29.30;94.60
11152;DHT22;5630;49.342;10.802;2022-08-30T12:12:04;29.30;94.50
11152;DHT22;5630;49.342;10.802;2022-08-30T12:14:46;29.30;93.80
11152;DHT22;5630;49.342;10.802;2022-08-30T12:20:45;29.30;93.80
11152;DHT22;5630;49.342;10.802;2022-08-30T12:23:28;29.10;94.30
11152;DHT22;5630;49.342;10.802;2022-08-30T12:26:16;29.20;94.50
11152;DHT22;5630;49.342;10.802;2022-08-30T12:28:43;29.00;93.60
11152;DHT22;5630;49.342;10.802;2022-08-30T12:31:15;28.80;93.80
11152;DHT22;5630;49.342;10.802;2022-08-30T12:33:43;28.80;93.80
11152;DHT22;5630;49.342;10.802;2022-08-30T12:39:11;28.70;95.40
11152;DHT22;5630;49.342;10.802;2022-08-30T12:41:38;28.70;94.50
11152;DHT22;5630;49.342;10.802;2022-08-30T12:44:07;28.70;96.10
11152;DHT22;5630;49.342;10.802;2022-08-30T12:46:34;28.80;94.20
11152;DHT22;5630;49.342;10.802;2022-08-30T12:48:59;28.70;92.90
11152;DHT22;5630;49.342;10.802;2022-08-30T12:51:28;28.70;93.40
11152;DHT22;5630;49.342;10.802;2022-08-30T12:54:06;28.50;93.20
11152;DHT22;5630;49.342;10.802;2022-08-30T12:56:53;28.40;93.80
11152;DHT22;5630;49.342;10.802;2022-08-30T12:59:49;28.50;93.90
11152;DHT22;5630;49.342;10.802;2022-08-30T13:02:24;28.40;92.60
11152;DHT22;5630;49.342;10.802;2022-08-30T13:04:52;28.40;92.80
11152;DHT22;5630;49.342;10.802;2022-08-30T13:07:34;28.50;93.60
11152;DHT22;5630;49.342;10.802;2022-08-30T13:10:26;28.40;91.50
11152;DHT22;5630;49.342;10.802;2022-08-30T13:13:02;28.40;93.50
11152;DHT22;5630;49.342;10.802;2022-08-30T13:15:33;28.30;92.90
11152;DHT22;5630;49.342;10.802;2022-08-30T13:18:18;28.10;92.00
11152;DHT22;5630;49.342;10.802;2022-08-30T13:20:45;28.00;94.40
11152;DHT22;5630;49.342;10.802;2022-08-30T13:23:21;28.00;94.40
11152;DHT22;5630;49.342;10.802;2022-08-30T13:25:47;28.10;94.60
11152;DHT22;5630;49.342;10.802;2022-08-30T13:28:12;28.10;93.90
11152;DHT22;5630;49.342;10.802;2022-08-30T13:30:38;27.90;93.30
11152;DHT22;5630;49.342;10.802;2022-08-30T13:33:03;28.00;93.50
11152;DHT22;5630;49.342;10.802;2022-08-30T13:35:30;27.90;93.50
11152;DHT22;5630;49.342;10.802;2022-08-30T13:37:56;27.50;94.20
11152;DHT22;5630;49.342;10.802;2022-08-30T13:40:24;27.40;94.00
11152;DHT22;5630;49.342;10.802;2022-08-30T13:42:49;27.60;93.70
11152;DHT22;5630;49.342;10.802;2022-08-30T13:45:16;27.60;95.10
11152;DHT22;5630;49.342;10.802;2022-08-30T13:47:43;27.70;94.10
11152;DHT22;5630;49.342;10.802;2022-08-30T13:50:11;27.80;95.90
11152;DHT22;5630;49.342;10.802;2022-08-30T13:52:37;27.60;93.80
11152;DHT22;5630;49.342;10.802;2022-08-30T13:55:03;27.50;93.20
11152;DHT22;5630;49.342;10.802;2022-08-30T13:57:29;27.30;93.60
11152;DHT22;5630;49.342;10.802;2022-08-30T13:59:55;27.20;92.60
11152;DHT22;5630;49.342;10.802;2022-08-30T14:02:21;27.30;93.10
11152;DHT22;5630;49.342;10.802;2022-08-30T14:04:46;27.30;94.20
11152;DHT22;5630;49.342;10.802;2022-08-30T14:07:12;27.40;95.00
11152;DHT22;5630;49.342;10.802;2022-08-30T14:09:38;27.30;94.10
11152;DHT22;5630;49.342;10.802;2022-08-30T14:12:03;27.30;95.20
11152;DHT22;5630;49.342;10.802;2022-08-30T14:14:29;27.20;94.90
11152;DHT22;5630;49.342;10.802;2022-08-30T14:16:54;27.00;94.30
11152;DHT22;5630;49.342;10.802;2022-08-30T14:19:20;27.00;93.70
11152;DHT22;5630;49.342;10.802;2022-08-30T14:21:46;26.80;93.80
11152;DHT22;5630;49.342;10.802;2022-08-30T14:24:11;26.80;94.50
11152;DHT22;5630;49.342;10.802;2022-08-30T14:26:40;26.70;94.50
11152;DHT22;5630;49.342;10.802;2022-08-30T14:29:10;26.60;94.70
11152;DHT22;5630;49.342;10.802;2022-08-30T14:31:37;26.60;95.70
11152;DHT22;5630;49.342;10.802;2022-08-30T14:34:03;26.50;94.20
11152;DHT22;5630;49.342;10.802;2022-08-30T14:36:30;26.40;94.10
11152;DHT22;5630;49.342;10.802;2022-08-30T14:38:56;26.30;94.90
11152;DHT22;5630;49.342;10.802;2022-08-30T14:41:22;26.30;95.90
11152;DHT22;5630;49.342;10.802;2022-08-30T14:43:50;26.20;94.00
11152;DHT22;5630;49.342;10.802;2022-08-30T14:46:15;26.00;93.30
11152;DHT22;5630;49.342;10.802;2022-08-30T14:48:41;26.10;94.00
11152;DHT22;5630;49.342;10.802;2022-08-30T14:51:14;26.00;95.00
11152;DHT22;5630;49.342;10.802;2022-08-30T14:53:41;26.00;96.30
11152;DHT22;5630;49.342;10.802;2022-08-30T14:56:08;26.00;95.00
11152;DHT22;5630;49.342;10.802;2022-08-30T14:58:35;25.90;95.70
11152;DHT22;5630;49.342;10.802;2022-08-30T15:01:00;25.90;96.00
11152;DHT22;5630;49.342;10.802;2022-08-30T15:03:26;25.90;95.80
11152;DHT22;5630;49.342;10.802;2022-08-30T15:05:52;25.90;96.40
11152;DHT22;5630;49.342;10.802;2022-08-30T15:08:18;25.80;96.60
11152;DHT22;5630;49.342;10.802;2022-08-30T15:10:44;25.80;97.00
11152;DHT22;5630;49.342;10.802;2022-08-30T15:13:09;25.80;96.40
11152;DHT22;5630;49.342;10.802;2022-08-30T15:15:35;25.80;96.70
11152;DHT22;5630;49.342;10.802;2022-08-30T15:18:00;25.90;95.60
11152;DHT22;5630;49.342;10.802;2022-08-30T15:20:26;25.90;96.80
11152;DHT22;5630;49.342;10.802;2022-08-30T15:22:52;25.80;96.60
11152;DHT22;5630;49.342;10.802;2022-08-30T15:25:18;25.60;96.90
11152;DHT22;5630;49.342;10.802;2022-08-30T15:27:43;25.70;98.00
11152;DHT22;5630;49.342;10.802;2022-08-30T15:30:10;25.60;98.00
11152;DHT22;5630;49.342;10.802;2022-08-30T15:32:37;25.50;99.20
11152;DHT22;5630;49.342;10.802;2022-08-30T15:35:03;25.50;98.00
11152;DHT22;5630;49.342;10.802;2022-08-30T15:37:29;25.50;98.30
11152;DHT22;5630;49.342;10.802;2022-08-30T15:39:54;25.40;97.50
11152;DHT22;5630;49.342;10.802;2022-08-30T15:42:20;25.40;97.90
11152;DHT22;5630;49.342;10.802;2022-08-30T15:44:53;25.40;97.20
11152;DHT22;5630;49.342;10.802;2022-08-30T15:47:20;25.30;96.80
11152;DHT22;5630;49.342;10.802;2022-08-30T15:49:56;25.40;97.30
11152;DHT22;5630;49.342;10.802;2022-08-30T15:52:24;25.30;98.20
11152;DHT22;5630;49.342;10.802;2022-08-30T15:54:49;25.20;98.00
11152;DHT22;5630;49.342;10.802;2022-08-30T15:57:15;25.20;98.40
11152;DHT22;5630;49.342;10.802;2022-08-30T15:59:41;25.20;97.70
11152;DHT22;5630;49.342;10.802;2022-08-30T16:02:06;25.20;97.90
11152;DHT22;5630;49.342;10.802;2022-08-30T16:04:32;25.20;98.70
11152;DHT22;5630;49.342;10.802;2022-08-30T16:06:58;25.20;98.30
11152;DHT22;5630;49.342;10.802;2022-08-30T16:09:23;25.10;97.90
11152;DHT22;5630;49.342;10.802;2022-08-30T16:11:50;25.20;97.90
11152;DHT22;5630;49.342;10.802;2022-08-30T16:14:16;25.10;98.10
11152;DHT22;5630;49.342;10.802;2022-08-30T16:16:42;25.20;97.40
11152;DHT22;5630;49.342;10.802;2022-08-30T16:19:08;25.20;97.50
11152;DHT22;5630;49.342;10.802;2022-08-30T16:21:34;25.00;98.30
11152;DHT22;5630;49.342;10.802;2022-08-30T16:24:05;25.00;98.40
11152;DHT22;5630;49.342;10.802;2022-08-30T16:26:33;25.10;98.50
11152;DHT22;5630;49.342;10.802;2022-08-30T16:28:59;25.00;98.90
11152;DHT22;5630;49.342;10.802;2022-08-30T16:31:26;25.00;99.20
11152;DHT22;5630;49.342;10.802;2022-08-30T16:33:52;24.80;99.80
11152;DHT22;5630;49.342;10.802;2022-08-30T16:36:19;24.80;99.90
11152;DHT22;5630;49.342;10.802;2022-08-30T16:38:44;24.70;99.90
11152;DHT22;5630;49.342;10.802;2022-08-30T16:41:13;24.60;99.90
11152;DHT22;5630;49.342;10.802;2022-08-30T16:43:39;24.60;99.90
11152;DHT22;5630;49.342;10.802;2022-08-30T16:46:08;24.60;99.90
11152;DHT22;5630;49.342;10.802;2022-08-30T16:48:34;24.60;99.40
11152;DHT22;5630;49.342;10.802;2022-08-30T16:51:02;24.40;99.60
11152;DHT22;5630;49.342;10.802;2022-08-30T16:53:29;24.40;99.90
11152;DHT22;5630;49.342;10.802;2022-08-30T16:55:55;24.30;99.90
11152;DHT22;5630;49.342;10.802;2022-08-30T16:58:20;24.30;99.90